sensor_id;sensor_type;location;lat;lon;timestamp;pressure;altitude;pressure_sealevel;temperature;humidity
66762;BME280;53672;48.176;16.338;2022-09-13T00:02:08;99087.91;;;13.95;88.24
66762;BME280;53672;48.176;16.338;2022-09-13T00:07:09;99071.97;;;13.94;87.73
66762;BME280;53672;48.176;16.338;2022-09-13T00:12:10;99061.22;;;13.89;87.61
66762;BME280;53672;48.176;16.338;2022-09-13T00:17:10;99063.25;;;13.83;87.99
66762;BME280;53672;48.176;16.338;2022-09-13T00:22:12;99057.25;;;13.73;87.45
66762;BME280;53672;48.176;16.338;2022-09-13T00:27:13;99054.81;;;13.71;87.88
66762;BME280;53672;48.176;16.338;2022-09-13T00:32:13;99059.03;;;13.63;87.90
66762;BME280;53672;48.176;16.338;2022-09-13T00:37:15;99052.94;;;13.58;88.11
66762;BME280;53672;48.176;16.338;2022-09-13T00:42:16;99049.22;;;13.54;88.61
66762;BME280;53672;48.176;16.338;2022-09-13T00:47:18;99048.00;;;13.46;88.73
66762;BME280;53672;48.176;16.338;2022-09-13T00:52:23;99051.44;;;13.38;89.53
66762;BME280;53672;48.176;16.338;2022-09-13T00:57:26;99043.72;;;13.32;88.95
66762;BME280;53672;48.176;16.338;2022-09-13T01:02:28;99034.19;;;13.20;88.96
66762;BME280;53672;48.176;16.338;2022-09-13T01:07:30;99035.88;;;13.16;89.49
66762;BME280;53672;48.176;16.338;2022-09-13T01:12:34;99043.34;;;13.06;91.51
66762;BME280;53672;48.176;16.338;2022-09-13T01:17:37;99030.81;;;12.96;91.79
66762;BME280;53672;48.176;16.338;2022-09-13T01:28:36;99025.09;;;12.84;91.14
66762;BME280;53672;48.176;16.338;2022-09-13T01:33:53;99032.25;;;12.75;92.76
66762;BME280;53672;48.176;16.338;2022-09-13T01:39:03;99015.63;;;12.68;92.19
66762;BME280;53672;48.176;16.338;2022-09-13T01:44:11;99010.09;;;12.59;92.50
66762;BME280;53672;48.176;16.338;2022-09-13T01:49:18;98993.34;;;12.57;93.10
66762;BME280;53672;48.176;16.338;2022-09-13T01:54:23;98993.25;;;12.49;92.76
66762;BME280;53672;48.176;16.338;2022-09-13T01:59:38;98993.53;;;12.47;92.37
66762;BME280;53672;48.176;16.338;2022-09-13T02:04:47;98984.50;;;12.38;94.87
66762;BME280;53672;48.176;16.338;2022-09-13T02:09:55;98974.06;;;12.32;94.54
66762;BME280;53672;48.176;16.338;2022-09-13T02:15:02;98972.22;;;12.27;96.28
66762;BME280;53672;48.176;16.338;2022-09-13T02:20:09;98972.75;;;12.29;96.15
66762;BME280;53672;48.176;16.338;2022-09-13T02:25:13;98967.16;;;12.26;95.09
66762;BME280;53672;48.176;16.338;2022-09-13T02:30:15;98960.78;;;12.16;97.81
66762;BME280;53672;48.176;16.338;2022-09-13T02:35:19;98971.16;;;12.09;98.34
66762;BME280;53672;48.176;16.338;2022-09-13T02:40:25;98960.13;;;12.06;98.23
66762;BME280;53672;48.176;16.338;2022-09-13T02:45:30;98953.97;;;12.05;97.41
66762;BME280;53672;48.176;16.338;2022-09-13T02:50:40;98957.75;;;12.04;96.71
66762;BME280;53672;48.176;16.338;2022-09-13T02:55:51;98960.72;;;12.03;95.80
66762;BME280;53672;48.176;16.338;2022-09-13T03:00:54;98953.75;;;12.02;95.30
66762;BME280;53672;48.176;16.338;2022-09-13T03:05:56;98962.13;;;12.00;94.17
66762;BME280;53672;48.176;16.338;2022-09-13T03:11:03;98957.31;;;11.97;94.50
66762;BME280;53672;48.176;16.338;2022-09-13T03:16:21;98953.09;;;11.91;94.45
66762;BME280;53672;48.176;16.338;2022-09-13T03:21:42;98947.47;;;11.88;95.25
66762;BME280;53672;48.176;16.338;2022-09-13T03:26:55;98942.94;;;11.83;95.08
66762;BME280;53672;48.176;16.338;2022-09-13T03:32:05;98943.00;;;11.78;94.09
66762;BME280;53672;48.176;16.338;2022-09-13T03:37:19;98939.59;;;11.73;94.82
66762;BME280;53672;48.176;16.338;2022-09-13T03:42:27;98942.34;;;11.67;95.18
66762;BME280;53672;48.176;16.338;2022-09-13T03:47:30;98939.69;;;11.62;94.72
66762;BME280;53672;48.176;16.338;2022-09-13T03:52:34;98937.09;;;11.57;94.71
66762;BME280;53672;48.176;16.338;2022-09-13T03:57:35;98936.91;;;11.49;94.52
66762;BME280;53672;48.176;16.338;2022-09-13T04:02:36;98934.00;;;11.45;94.38
66762;BME280;53672;48.176;16.338;2022-09-13T04:07:38;98938.59;;;11.45;95.35
66762;BME280;53672;48.176;16.338;2022-09-13T04:12:38;98942.69;;;11.42;95.67
66762;BME280;53672;48.176;16.338;2022-09-13T04:17:39;98938.94;;;11.38;96.18
66762;BME280;53672;48.176;16.338;2022-09-13T04:22:40;98932.28;;;11.31;95.10
66762;BME280;53672;48.176;16.338;2022-09-13T04:27:41;98947.47;;;11.27;94.78
66762;BME280;53672;48.176;16.338;2022-09-13T04:32:42;98944.25;;;11.25;95.54
66762;BME280;53672;48.176;16.338;2022-09-13T04:37:44;98939.44;;;11.22;95.14
66762;BME280;53672;48.176;16.338;2022-09-13T04:42:44;98943.81;;;11.17;95.28
66762;BME280;53672;48.176;16.338;2022-09-13T04:47:50;98931.41;;;11.16;95.19
66762;BME280;53672;48.176;16.338;2022-09-13T04:52:53;98934.84;;;11.22;97.11
66762;BME280;53672;48.176;16.338;2022-09-13T04:57:54;98936.09;;;11.30;97.07
66762;BME280;53672;48.176;16.338;2022-09-13T05:02:55;98952.16;;;11.40;97.62
66762;BME280;53672;48.176;16.338;2022-09-13T05:07:57;98951.81;;;11.46;97.76
66762;BME280;53672;48.176;16.338;2022-09-13T05:12:58;98950.88;;;11.56;98.02
66762;BME280;53672;48.176;16.338;2022-09-13T05:17:58;98950.72;;;11.66;97.84
66762;BME280;53672;48.176;16.338;2022-09-13T05:23:00;98948.13;;;11.80;97.29
66762;BME280;53672;48.176;16.338;2022-09-13T05:28:01;98956.00;;;11.95;96.24
66762;BME280;53672;48.176;16.338;2022-09-13T05:33:01;98957.59;;;12.14;95.75
66762;BME280;53672;48.176;16.338;2022-09-13T05:38:03;98951.25;;;12.38;95.33
66762;BME280;53672;48.176;16.338;2022-09-13T05:43:04;98960.31;;;12.60;94.51
66762;BME280;53672;48.176;16.338;2022-09-13T05:48:04;98962.69;;;12.94;93.26
66762;BME280;53672;48.176;16.338;2022-09-13T05:53:06;98969.03;;;13.31;91.24
66762;BME280;53672;48.176;16.338;2022-09-13T05:58:06;98957.34;;;13.57;89.77
66762;BME280;53672;48.176;16.338;2022-09-13T06:03:07;98959.69;;;13.86;88.41
66762;BME280;53672;48.176;16.338;2022-09-13T06:08:09;98957.38;;;14.15;86.82
66762;BME280;53672;48.176;16.338;2022-09-13T06:13:09;98956.16;;;14.44;85.53
66762;BME280;53672;48.176;16.338;2022-09-13T06:18:10;98950.09;;;14.69;84.48
66762;BME280;53672;48.176;16.338;2022-09-13T06:23:12;98941.94;;;15.00;82.44
66762;BME280;53672;48.176;16.338;2022-09-13T06:28:12;98941.03;;;15.21;78.71
66762;BME280;53672;48.176;16.338;2022-09-13T06:33:12;98939.22;;;15.56;77.30
66762;BME280;53672;48.176;16.338;2022-09-13T06:38:14;98941.81;;;15.87;74.82
66762;BME280;53672;48.176;16.338;2022-09-13T06:43:15;98942.13;;;16.20;71.92
66762;BME280;53672;48.176;16.338;2022-09-13T06:48:15;98954.59;;;16.47;70.31
66762;BME280;53672;48.176;16.338;2022-09-13T06:53:17;98948.13;;;16.77;69.39
66762;BME280;53672;48.176;16.338;2022-09-13T06:58:17;98953.22;;;16.87;68.48
66762;BME280;53672;48.176;16.338;2022-09-13T07:03:18;98952.25;;;16.83;67.46
66762;BME280;53672;48.176;16.338;2022-09-13T07:08:20;98947.19;;;17.11;68.06
66762;BME280;53672;48.176;16.338;2022-09-13T07:13:20;98929.00;;;17.23;66.49
66762;BME280;53672;48.176;16.338;2022-09-13T07:18:21;98931.75;;;17.53;63.18
66762;BME280;53672;48.176;16.338;2022-09-13T07:23:23;98928.31;;;17.35;64.01
66762;BME280;53672;48.176;16.338;2022-09-13T07:28:23;98933.94;;;17.30;64.69
66762;BME280;53672;48.176;16.338;2022-09-13T07:33:24;98943.16;;;17.46;64.08
66762;BME280;53672;48.176;16.338;2022-09-13T07:38:26;98938.81;;;17.74;62.70
66762;BME280;53672;48.176;16.338;2022-09-13T07:43:26;98941.91;;;17.94;63.43
66762;BME280;53672;48.176;16.338;2022-09-13T07:48:30;98951.91;;;18.02;61.57
66762;BME280;53672;48.176;16.338;2022-09-13T07:53:33;98949.03;;;18.19;59.22
66762;BME280;53672;48.176;16.338;2022-09-13T07:58:36;98950.03;;;18.56;58.46
66762;BME280;53672;48.176;16.338;2022-09-13T08:03:37;98943.41;;;18.57;58.08
66762;BME280;53672;48.176;16.338;2022-09-13T08:08:39;98942.06;;;18.30;59.74
66762;BME280;53672;48.176;16.338;2022-09-13T08:13:39;98944.16;;;18.45;59.33
66762;BME280;53672;48.176;16.338;2022-09-13T08:18:42;98953.25;;;18.82;58.50
66762;BME280;53672;48.176;16.338;2022-09-13T08:23:44;98959.69;;;19.35;57.16
66762;BME280;53672;48.176;16.338;2022-09-13T08:28:45;98957.97;;;19.18;57.76
66762;BME280;53672;48.176;16.338;2022-09-13T08:33:46;98957.50;;;19.40;57.77
66762;BME280;53672;48.176;16.338;2022-09-13T08:38:49;98958.78;;;19.55;57.55
66762;BME280;53672;48.176;16.338;2022-09-13T08:43:55;98956.56;;;19.85;56.37
66762;BME280;53672;48.176;16.338;2022-09-13T08:49:02;98955.59;;;20.17;55.64
66762;BME280;53672;48.176;16.338;2022-09-13T08:54:08;98946.13;;;20.42;54.64
66762;BME280;53672;48.176;16.338;2022-09-13T08:59:31;98938.78;;;20.18;55.22
66762;BME280;53672;48.176;16.338;2022-09-13T09:04:41;98942.66;;;20.57;54.30
66762;BME280;53672;48.176;16.338;2022-09-13T09:09:50;98941.22;;;21.22;53.75
66762;BME280;53672;48.176;16.338;2022-09-13T09:14:59;98930.06;;;22.01;51.16
66762;BME280;53672;48.176;16.338;2022-09-13T09:20:09;98928.88;;;22.40;50.36
66762;BME280;53672;48.176;16.338;2022-09-13T09:25:17;98935.59;;;22.62;48.59
66762;BME280;53672;48.176;16.338;2022-09-13T09:30:20;98931.31;;;23.85;46.16
66762;BME280;53672;48.176;16.338;2022-09-13T09:35:31;98927.56;;;24.63;43.66
66762;BME280;53672;48.176;16.338;2022-09-13T09:40:39;98927.31;;;25.19;42.17
66762;BME280;53672;48.176;16.338;2022-09-13T09:45:40;98920.09;;;25.59;40.86
66762;BME280;53672;48.176;16.338;2022-09-13T09:50:46;98902.78;;;25.11;43.40
66762;BME280;53672;48.176;16.338;2022-09-13T09:55:53;98893.28;;;24.24;44.38
66762;BME280;53672;48.176;16.338;2022-09-13T10:00:56;98885.78;;;25.53;42.46
66762;BME280;53672;48.176;16.338;2022-09-13T10:06:04;98874.47;;;25.17;41.87
66762;BME280;53672;48.176;16.338;2022-09-13T10:11:07;98867.03;;;25.94;40.43
66762;BME280;53672;48.176;16.338;2022-09-13T10:16:23;98864.72;;;26.13;40.05
66762;BME280;53672;48.176;16.338;2022-09-13T10:21:26;98859.13;;;25.85;39.96
66762;BME280;53672;48.176;16.338;2022-09-13T10:26:31;98853.47;;;25.57;39.73
66762;BME280;53672;48.176;16.338;2022-09-13T10:31:35;98851.44;;;27.39;37.46
66762;BME280;53672;48.176;16.338;2022-09-13T10:36:36;98864.06;;;27.40;37.87
66762;BME280;53672;48.176;16.338;2022-09-13T10:41:40;98864.84;;;27.55;35.97
66762;BME280;53672;48.176;16.338;2022-09-13T10:46:41;98870.88;;;25.68;39.55
66762;BME280;53672;48.176;16.338;2022-09-13T10:51:43;98857.38;;;27.23;37.98
66762;BME280;53672;48.176;16.338;2022-09-13T10:56:45;98855.16;;;28.12;35.48
66762;BME280;53672;48.176;16.338;2022-09-13T11:07:32;98840.78;;;27.02;36.95
66762;BME280;53672;48.176;16.338;2022-09-13T11:12:42;98837.53;;;27.60;36.06
66762;BME280;53672;48.176;16.338;2022-09-13T11:18:02;98826.19;;;28.28;35.60
66762;BME280;53672;48.176;16.338;2022-09-13T11:23:34;98820.56;;;27.51;35.64
66762;BME280;53672;48.176;16.338;2022-09-13T11:28:43;98799.16;;;27.66;36.28
66762;BME280;53672;48.176;16.338;2022-09-13T11:33:55;98802.50;;;28.05;35.22
66762;BME280;53672;48.176;16.338;2022-09-13T11:39:08;98799.06;;;27.87;35.46
66762;BME280;53672;48.176;16.338;2022-09-13T11:44:25;98802.69;;;28.94;33.14
66762;BME280;53672;48.176;16.338;2022-09-13T11:49:41;98801.91;;;28.46;33.57
66762;BME280;53672;48.176;16.338;2022-09-13T11:55:00;98795.63;;;29.31;32.98
66762;BME280;53672;48.176;16.338;2022-09-13T12:00:08;98791.94;;;29.71;31.68
66762;BME280;53672;48.176;16.338;2022-09-13T12:05:15;98789.13;;;29.44;31.80
66762;BME280;53672;48.176;16.338;2022-09-13T12:10:21;98779.59;;;29.45;32.89
66762;BME280;53672;48.176;16.338;2022-09-13T12:15:31;98776.75;;;28.12;33.23
66762;BME280;53672;48.176;16.338;2022-09-13T12:20:36;98773.78;;;28.40;33.63
66762;BME280;53672;48.176;16.338;2022-09-13T12:25:43;98753.16;;;28.45;33.95
66762;BME280;53672;48.176;16.338;2022-09-13T12:30:51;98729.94;;;27.59;34.84
66762;BME280;53672;48.176;16.338;2022-09-13T12:41:34;98728.03;;;27.42;35.18
66762;BME280;53672;48.176;16.338;2022-09-13T12:47:00;98713.00;;;27.39;35.69
66762;BME280;53672;48.176;16.338;2022-09-13T12:52:25;98704.50;;;26.73;36.42
66762;BME280;53672;48.176;16.338;2022-09-13T12:57:37;98705.66;;;26.72;36.74
66762;BME280;53672;48.176;16.338;2022-09-13T13:02:43;98706.09;;;26.64;36.72
66762;BME280;53672;48.176;16.338;2022-09-13T13:07:51;98699.00;;;26.42;36.90
66762;BME280;53672;48.176;16.338;2022-09-13T13:12:53;98708.19;;;25.24;36.35
66762;BME280;53672;48.176;16.338;2022-09-13T13:17:54;98697.28;;;25.56;37.19
66762;BME280;53672;48.176;16.338;2022-09-13T13:23:02;98698.53;;;25.87;35.55
66762;BME280;53672;48.176;16.338;2022-09-13T13:33:48;98689.53;;;26.50;35.05
66762;BME280;53672;48.176;16.338;2022-09-13T13:38:50;98696.19;;;26.06;35.79
66762;BME280;53672;48.176;16.338;2022-09-13T13:43:51;98672.91;;;25.68;37.04
66762;BME280;53672;48.176;16.338;2022-09-13T13:48:53;98663.19;;;25.02;39.28
66762;BME280;53672;48.176;16.338;2022-09-13T13:54:02;98667.63;;;24.59;39.44
66762;BME280;53672;48.176;16.338;2022-09-13T13:59:09;98654.34;;;24.72;39.21
66762;BME280;53672;48.176;16.338;2022-09-13T14:10:02;98650.19;;;25.03;39.40
66762;BME280;53672;48.176;16.338;2022-09-13T14:15:23;98656.88;;;25.05;38.74
66762;BME280;53672;48.176;16.338;2022-09-13T14:20:26;98646.00;;;24.58;40.20
66762;BME280;53672;48.176;16.338;2022-09-13T14:25:28;98646.56;;;24.85;40.11
66762;BME280;53672;48.176;16.338;2022-09-13T14:30:31;98640.97;;;24.78;39.50
66762;BME280;53672;48.176;16.338;2022-09-13T14:35:36;98644.59;;;24.27;40.33
66762;BME280;53672;48.176;16.338;2022-09-13T14:40:38;98621.38;;;24.25;40.50
66762;BME280;53672;48.176;16.338;2022-09-13T14:50:45;98629.03;;;24.01;41.94
66762;BME280;53672;48.176;16.338;2022-09-13T14:55:51;98626.13;;;23.80;42.30
66762;BME280;53672;48.176;16.338;2022-09-13T15:00:56;98614.81;;;23.48;43.56
66762;BME280;53672;48.176;16.338;2022-09-13T15:05:59;98614.44;;;23.53;43.92
66762;BME280;53672;48.176;16.338;2022-09-13T15:11:04;98609.16;;;23.38;44.13
66762;BME280;53672;48.176;16.338;2022-09-13T15:16:23;98615.41;;;23.35;44.93
66762;BME280;53672;48.176;16.338;2022-09-13T15:21:25;98625.88;;;23.18;44.99
66762;BME280;53672;48.176;16.338;2022-09-13T15:26:27;98625.75;;;23.08;45.08
66762;BME280;53672;48.176;16.338;2022-09-13T15:31:30;98611.16;;;23.04;45.86
66762;BME280;53672;48.176;16.338;2022-09-13T15:36:32;98610.59;;;22.91;46.00
66762;BME280;53672;48.176;16.338;2022-09-13T15:41:35;98607.03;;;22.87;46.22
66762;BME280;53672;48.176;16.338;2022-09-13T15:46:45;98598.16;;;22.71;45.91
66762;BME280;53672;48.176;16.338;2022-09-13T15:51:46;98606.72;;;22.66;46.12
66762;BME280;53672;48.176;16.338;2022-09-13T15:56:53;98603.88;;;22.59;46.39
66762;BME280;53672;48.176;16.338;2022-09-13T16:01:53;98603.38;;;22.50;46.42
66762;BME280;53672;48.176;16.338;2022-09-13T16:06:54;98603.28;;;22.43;46.51
66762;BME280;53672;48.176;16.338;2022-09-13T16:11:56;98595.34;;;22.38;46.40
66762;BME280;53672;48.176;16.338;2022-09-13T16:17:06;98594.00;;;22.24;47.74
66762;BME280;53672;48.176;16.338;2022-09-13T16:22:09;98598.81;;;22.05;48.04
66762;BME280;53672;48.176;16.338;2022-09-13T16:27:11;98594.81;;;22.02;48.03
66762;BME280;53672;48.176;16.338;2022-09-13T16:32:12;98591.31;;;22.02;47.64
66762;BME280;53672;48.176;16.338;2022-09-13T16:37:14;98591.72;;;22.04;47.45
66762;BME280;53672;48.176;16.338;2022-09-13T16:42:16;98589.66;;;21.97;47.35
66762;BME280;53672;48.176;16.338;2022-09-13T16:47:17;98581.78;;;21.96;47.30
66762;BME280;53672;48.176;16.338;2022-09-13T16:52:17;98584.47;;;21.92;47.45
66762;BME280;53672;48.176;16.338;2022-09-13T16:57:19;98581.91;;;21.80;47.29
66762;BME280;53672;48.176;16.338;2022-09-13T17:02:20;98580.31;;;21.79;47.60
66762;BME280;53672;48.176;16.338;2022-09-13T17:07:20;98574.72;;;21.72;47.78
66762;BME280;53672;48.176;16.338;2022-09-13T17:12:22;98577.78;;;21.67;48.31
66762;BME280;53672;48.176;16.338;2022-09-13T17:17:22;98567.47;;;21.60;48.75
66762;BME280;53672;48.176;16.338;2022-09-13T17:22:23;98563.50;;;21.58;49.03
66762;BME280;53672;48.176;16.338;2022-09-13T17:27:25;98562.22;;;21.52;49.36
66762;BME280;53672;48.176;16.338;2022-09-13T17:32:25;98560.56;;;21.47;49.76
66762;BME280;53672;48.176;16.338;2022-09-13T17:37:26;98555.06;;;21.44;50.10
66762;BME280;53672;48.176;16.338;2022-09-13T17:42:27;98567.91;;;21.40;50.52
66762;BME280;53672;48.176;16.338;2022-09-13T17:47:28;98559.91;;;21.31;51.14
66762;BME280;53672;48.176;16.338;2022-09-13T17:52:28;98561.44;;;21.29;51.39
66762;BME280;53672;48.176;16.338;2022-09-13T17:57:30;98546.47;;;21.22;51.68
66762;BME280;53672;48.176;16.338;2022-09-13T18:02:31;98549.81;;;21.12;52.35
66762;BME280;53672;48.176;16.338;2022-09-13T18:07:31;98550.44;;;21.06;53.08
66762;BME280;53672;48.176;16.338;2022-09-13T18:12:33;98555.34;;;20.97;53.71
66762;BME280;53672;48.176;16.338;2022-09-13T18:17:33;98564.13;;;20.87;54.26
66762;BME280;53672;48.176;16.338;2022-09-13T18:22:34;98566.38;;;20.81;54.61
66762;BME280;53672;48.176;16.338;2022-09-13T18:27:36;98565.88;;;20.75;55.10
66762;BME280;53672;48.176;16.338;2022-09-13T18:32:36;98564.09;;;20.64;55.92
66762;BME280;53672;48.176;16.338;2022-09-13T18:37:37;98562.66;;;20.51;56.70
66762;BME280;53672;48.176;16.338;2022-09-13T18:42:39;98557.22;;;20.35;56.88
66762;BME280;53672;48.176;16.338;2022-09-13T18:47:39;98554.66;;;20.27;56.98
66762;BME280;53672;48.176;16.338;2022-09-13T18:52:40;98561.03;;;20.31;56.41
66762;BME280;53672;48.176;16.338;2022-09-13T18:57:41;98555.66;;;20.34;56.20
66762;BME280;53672;48.176;16.338;2022-09-13T19:02:42;98545.13;;;20.36;56.08
66762;BME280;53672;48.176;16.338;2022-09-13T19:07:42;98550.94;;;20.35;56.04
66762;BME280;53672;48.176;16.338;2022-09-13T19:12:44;98546.19;;;20.32;56.10
66762;BME280;53672;48.176;16.338;2022-09-13T19:17:45;98552.56;;;20.20;57.03
66762;BME280;53672;48.176;16.338;2022-09-13T19:22:45;98551.63;;;20.12;57.95
66762;BME280;53672;48.176;16.338;2022-09-13T19:27:47;98553.81;;;20.07;59.33
66762;BME280;53672;48.176;16.338;2022-09-13T19:32:47;98553.31;;;20.01;60.93
66762;BME280;53672;48.176;16.338;2022-09-13T19:37:48;98544.94;;;19.94;61.91
66762;BME280;53672;48.176;16.338;2022-09-13T19:42:50;98548.94;;;19.81;62.65
66762;BME280;53672;48.176;16.338;2022-09-13T19:47:50;98545.69;;;19.76;62.80
66762;BME280;53672;48.176;16.338;2022-09-13T19:52:51;98537.75;;;19.70;63.21
66762;BME280;53672;48.176;16.338;2022-09-13T19:57:52;98535.53;;;19.60;63.69
66762;BME280;53672;48.176;16.338;2022-09-13T20:02:53;98538.81;;;19.50;64.68
66762;BME280;53672;48.176;16.338;2022-09-13T20:07:53;98531.47;;;19.39;64.93
66762;BME280;53672;48.176;16.338;2022-09-13T20:12:56;98533.59;;;19.30;65.63
66762;BME280;53672;48.176;16.338;2022-09-13T20:17:57;98530.16;;;19.17;65.85
66762;BME280;53672;48.176;16.338;2022-09-13T20:22:57;98530.91;;;19.02;66.97
66762;BME280;53672;48.176;16.338;2022-09-13T20:27:59;98527.09;;;18.91;67.02
66762;BME280;53672;48.176;16.338;2022-09-13T20:32:59;98530.31;;;18.81;66.66
66762;BME280;53672;48.176;16.338;2022-09-13T20:38:00;98517.28;;;18.74;66.62
66762;BME280;53672;48.176;16.338;2022-09-13T20:43:02;98525.38;;;18.70;66.78
66762;BME280;53672;48.176;16.338;2022-09-13T20:48:02;98514.03;;;18.68;66.78
66762;BME280;53672;48.176;16.338;2022-09-13T20:53:03;98505.31;;;18.63;66.87
66762;BME280;53672;48.176;16.338;2022-09-13T20:58:05;98498.25;;;18.62;67.34
66762;BME280;53672;48.176;16.338;2022-09-13T21:03:05;98500.50;;;18.60;68.64
66762;BME280;53672;48.176;16.338;2022-09-13T21:08:07;98503.03;;;18.53;69.52
66762;BME280;53672;48.176;16.338;2022-09-13T21:13:09;98500.97;;;18.50;69.81
66762;BME280;53672;48.176;16.338;2022-09-13T21:18:10;98504.88;;;18.49;71.15
66762;BME280;53672;48.176;16.338;2022-09-13T21:23:10;98504.88;;;18.49;70.79
66762;BME280;53672;48.176;16.338;2022-09-13T21:28:12;98498.94;;;18.47;70.80
66762;BME280;53672;48.176;16.338;2022-09-13T21:33:13;98499.53;;;18.40;70.89
66762;BME280;53672;48.176;16.338;2022-09-13T21:38:14;98501.03;;;18.38;70.41
66762;BME280;53672;48.176;16.338;2022-09-13T21:43:16;98497.41;;;18.34;71.29
66762;BME280;53672;48.176;16.338;2022-09-13T21:48:16;98490.50;;;18.24;71.36
66762;BME280;53672;48.176;16.338;2022-09-13T21:53:17;98491.91;;;18.18;71.44
66762;BME280;53672;48.176;16.338;2022-09-13T21:58:19;98482.72;;;18.10;72.10
66762;BME280;53672;48.176;16.338;2022-09-13T22:03:20;98475.91;;;18.04;72.95
66762;BME280;53672;48.176;16.338;2022-09-13T22:08:20;98477.28;;;17.98;72.20
66762;BME280;53672;48.176;16.338;2022-09-13T22:13:22;98459.94;;;17.91;72.97
66762;BME280;53672;48.176;16.338;2022-09-13T22:18:22;98458.22;;;17.86;72.44
66762;BME280;53672;48.176;16.338;2022-09-13T22:23:23;98472.44;;;17.80;72.58
66762;BME280;53672;48.176;16.338;2022-09-13T22:28:25;98469.94;;;17.74;73.48
66762;BME280;53672;48.176;16.338;2022-09-13T22:33:25;98470.09;;;17.66;73.40
66762;BME280;53672;48.176;16.338;2022-09-13T22:38:27;98471.78;;;17.58;73.58
66762;BME280;53672;48.176;16.338;2022-09-13T22:43:31;98477.34;;;17.50;74.82
66762;BME280;53672;48.176;16.338;2022-09-13T22:48:32;98480.41;;;17.36;76.01
66762;BME280;53672;48.176;16.338;2022-09-13T22:53:34;98475.50;;;17.30;75.45
66762;BME280;53672;48.176;16.338;2022-09-13T22:58:37;98474.63;;;17.26;75.12
66762;BME280;53672;48.176;16.338;2022-09-13T23:03:39;98473.69;;;17.21;75.41
66762;BME280;53672;48.176;16.338;2022-09-13T23:08:40;98473.09;;;17.16;75.39
66762;BME280;53672;48.176;16.338;2022-09-13T23:13:43;98473.00;;;17.12;75.47
66762;BME280;53672;48.176;16.338;2022-09-13T23:18:43;98479.91;;;17.10;75.61
66762;BME280;53672;48.176;16.338;2022-09-13T23:23:44;98467.34;;;17.05;76.15
66762;BME280;53672;48.176;16.338;2022-09-13T23:28:50;98472.78;;;17.05;76.48
66762;BME280;53672;48.176;16.338;2022-09-13T23:33:53;98473.00;;;17.00;76.21
66762;BME280;53672;48.176;16.338;2022-09-13T23:38:56;98468.47;;;17.04;75.07
66762;BME280;53672;48.176;16.338;2022-09-13T23:43:59;98465.38;;;17.06;75.34
66762;BME280;53672;48.176;16.338;2022-09-13T23:49:00;98457.69;;;17.08;75.55
66762;BME280;53672;48.176;16.338;2022-09-13T23:54:01;98465.84;;;17.08;75.67
66762;BME280;53672;48.176;16.338;2022-09-13T23:59:03;98459.63;;;17.07;75.63
